createdAt,value
2023-04-04T00:01:45.720Z,20.80
2023-04-04T00:04:12.620Z,21.42
2023-04-04T00:06:44.184Z,20.67
2023-04-04T00:09:11.404Z,20.02
2023-04-04T00:11:38.725Z,19.95
2023-04-04T00:14:05.572Z,19.60
2023-04-04T00:16:32.480Z,19.42
2023-04-04T00:18:59.290Z,19.63
2023-04-04T00:21:27.308Z,19.75
2023-04-04T00:23:54.473Z,20.00
2023-04-04T00:26:21.744Z,19.15
2023-04-04T00:28:48.610Z,20.13
2023-04-04T00:31:15.976Z,19.33
2023-04-04T00:33:42.724Z,18.42
2023-04-04T00:36:09.371Z,18.33
2023-04-04T00:38:38.192Z,18.60
2023-04-04T00:41:06.550Z,18.83
2023-04-04T00:43:34.981Z,17.30
2023-04-04T00:46:01.853Z,16.75
2023-04-04T00:48:29.180Z,17.48
2023-04-04T00:50:58.868Z,16.60
2023-04-04T00:53:25.930Z,16.90
2023-04-04T00:55:52.562Z,17.00
2023-04-04T00:58:19.524Z,16.67
2023-04-04T01:00:46.472Z,17.40
2023-04-04T01:03:14.342Z,18.35
2023-04-04T01:05:41.674Z,18.23
2023-04-04T01:08:08.578Z,17.95
2023-04-04T01:10:36.609Z,17.70
2023-04-04T01:13:03.529Z,18.45
2023-04-04T01:15:30.299Z,17.75
2023-04-04T01:17:59.861Z,17.85
2023-04-04T01:20:29.211Z,17.50
2023-04-04T01:22:58.842Z,18.17
2023-04-04T01:25:32.217Z,18.02
2023-04-04T01:28:03.747Z,17.38
2023-04-04T01:30:36.780Z,16.95
2023-04-04T01:33:13.239Z,17.17
2023-04-04T01:35:59.388Z,17.52
2023-04-04T01:38:53.975Z,16.55
2023-04-04T01:41:21.457Z,16.67
2023-04-04T01:43:56.073Z,17.35
2023-04-04T01:46:23.898Z,17.27
2023-04-04T01:48:50.982Z,17.13
2023-04-04T01:51:23.747Z,16.50
2023-04-04T01:53:51.460Z,16.02
2023-04-04T01:56:18.271Z,16.10
2023-04-04T01:58:44.912Z,16.38
2023-04-04T02:01:11.562Z,16.67
2023-04-04T02:03:38.674Z,16.20
2023-04-04T02:06:05.522Z,16.23
2023-04-04T02:08:32.128Z,16.10
2023-04-04T02:10:58.980Z,16.13
2023-04-04T02:13:26.970Z,16.40
2023-04-04T02:15:54.704Z,16.58
2023-04-04T02:18:21.350Z,15.98
2023-04-04T02:20:56.381Z,16.42
2023-04-04T02:25:52.661Z,15.82
2023-04-04T02:28:19.560Z,15.80
2023-04-04T02:30:47.934Z,15.70
2023-04-04T02:33:14.552Z,15.55
2023-04-04T02:35:41.331Z,15.02
2023-04-04T02:38:07.945Z,16.33
2023-04-04T02:40:42.170Z,14.63
2023-04-04T02:43:09.332Z,15.07
2023-04-04T02:45:36.901Z,15.60
2023-04-04T02:48:22.167Z,14.25
2023-04-04T02:50:51.745Z,14.68
2023-04-04T02:53:18.580Z,15.05
2023-04-04T02:55:47.692Z,14.98
2023-04-04T02:58:14.822Z,15.50
2023-04-04T03:00:41.775Z,17.23
2023-04-04T03:03:08.875Z,17.48
2023-04-04T03:05:41.206Z,20.60
2023-04-04T03:08:08.134Z,16.98
2023-04-04T03:10:34.765Z,18.27
2023-04-04T03:13:01.350Z,26.90
2023-04-04T03:15:30.544Z,28.15
2023-04-04T03:17:58.838Z,29.38
2023-04-04T03:20:27.224Z,34.80
2023-04-04T03:22:53.926Z,19.20
2023-04-04T03:25:21.010Z,20.20
2023-04-04T03:27:47.809Z,20.35
2023-04-04T03:30:20.965Z,19.27
2023-04-04T03:32:47.655Z,24.92
2023-04-04T03:35:14.649Z,26.60
2023-04-04T03:37:42.694Z,21.30
2023-04-04T03:40:09.900Z,20.98
2023-04-04T03:42:36.582Z,23.50
2023-04-04T03:45:08.332Z,23.73
2023-04-04T03:47:36.270Z,21.85
2023-04-04T03:50:03.069Z,19.10
2023-04-04T03:52:31.042Z,18.85
2023-04-04T03:54:58.109Z,17.73
2023-04-04T03:57:27.234Z,20.52
2023-04-04T03:59:53.940Z,23.20
2023-04-04T04:02:22.453Z,18.38
2023-04-04T04:04:49.236Z,17.95
2023-04-04T04:07:16.015Z,18.50
2023-04-04T04:09:42.756Z,16.88
2023-04-04T04:12:09.931Z,17.45
2023-04-04T04:14:37.265Z,17.75
2023-04-04T04:17:04.272Z,17.45
2023-04-04T04:19:31.202Z,17.90
2023-04-04T04:21:57.903Z,17.35
2023-04-04T04:24:24.609Z,17.38
2023-04-04T04:26:51.221Z,18.35
2023-04-04T04:29:17.848Z,18.60
2023-04-04T04:31:45.537Z,16.85
2023-04-04T04:34:12.650Z,17.48
2023-04-04T04:36:40.905Z,17.73
2023-04-04T04:39:24.789Z,17.48
2023-04-04T04:42:10.301Z,16.88
2023-04-04T04:44:44.592Z,17.67
2023-04-04T04:47:11.837Z,16.63
2023-04-04T04:49:38.656Z,16.73
2023-04-04T04:52:08.249Z,15.63
2023-04-04T04:54:36.038Z,16.17
2023-04-04T04:57:03.183Z,16.50
2023-04-04T04:59:30.772Z,15.65
2023-04-04T05:01:59.377Z,15.40
2023-04-04T05:04:27.128Z,15.27
2023-04-04T05:07:04.101Z,16.75
2023-04-04T05:09:32.121Z,15.90
2023-04-04T05:11:58.735Z,16.15
2023-04-04T05:14:36.002Z,16.85
2023-04-04T05:17:02.927Z,17.08
2023-04-04T05:19:32.258Z,17.83
2023-04-04T05:21:59.588Z,18.10
2023-04-04T05:24:32.731Z,17.80
2023-04-04T05:27:00.660Z,18.48
2023-04-04T05:29:33.249Z,17.88
2023-04-04T05:32:01.822Z,17.10
2023-04-04T05:34:28.897Z,16.77
2023-04-04T05:36:57.604Z,17.02
2023-04-04T05:39:24.378Z,17.30
2023-04-04T05:42:01.257Z,17.15
2023-04-04T05:44:32.043Z,17.63
2023-04-04T05:46:58.844Z,17.95
2023-04-04T05:49:28.476Z,22.13
2023-04-04T05:52:01.127Z,19.08
2023-04-04T05:54:29.131Z,19.27
2023-04-04T05:56:58.161Z,19.60
2023-04-04T05:59:40.417Z,19.05
2023-04-04T06:02:09.786Z,19.38
2023-04-04T06:04:41.004Z,19.73
2023-04-04T06:07:09.067Z,19.50
2023-04-04T06:09:36.195Z,20.15
2023-04-04T06:12:06.516Z,21.85
2023-04-04T06:14:37.325Z,22.02
2023-04-04T06:17:06.579Z,22.75
2023-04-04T06:19:34.655Z,22.10
2023-04-04T06:22:01.508Z,21.63
2023-04-04T06:24:31.053Z,21.67
2023-04-04T06:26:57.905Z,19.80
2023-04-04T06:29:26.712Z,20.83
2023-04-04T06:31:55.644Z,19.60
2023-04-04T06:34:33.717Z,19.65
2023-04-04T06:37:01.253Z,18.80
2023-04-04T06:39:34.184Z,18.13
2023-04-04T06:42:03.790Z,18.23
2023-04-04T06:44:33.444Z,18.42
2023-04-04T06:47:00.189Z,20.42
2023-04-04T06:49:26.913Z,19.80
2023-04-04T06:51:54.068Z,20.02
2023-04-04T06:54:20.725Z,20.95
2023-04-04T06:56:47.547Z,20.33
2023-04-04T06:59:14.728Z,20.48
2023-04-04T07:01:41.497Z,20.75
2023-04-04T07:04:08.160Z,22.48
2023-04-04T07:06:34.752Z,24.50
2023-04-04T07:09:01.443Z,24.15
2023-04-04T07:11:29.112Z,24.02
2023-04-04T07:13:56.169Z,25.05
2023-04-04T07:16:23.268Z,24.88
2023-04-04T07:18:50.118Z,28.17
2023-04-04T07:21:17.333Z,27.90
2023-04-04T07:23:43.988Z,31.13
2023-04-04T07:26:10.620Z,28.40
2023-04-04T07:28:37.383Z,29.02
2023-04-04T07:31:04.012Z,29.02
2023-04-04T07:33:30.996Z,30.08
2023-04-04T07:35:57.850Z,30.77
2023-04-04T07:38:24.486Z,31.75
2023-04-04T07:40:51.256Z,30.10
2023-04-04T07:43:17.894Z,33.58
2023-04-04T07:45:44.634Z,34.38
2023-04-04T07:48:11.399Z,34.50
2023-04-04T07:50:38.494Z,34.05
2023-04-04T07:53:05.281Z,35.92
2023-04-04T07:55:31.865Z,34.85
2023-04-04T07:57:58.572Z,35.22
2023-04-04T08:00:26.384Z,35.08
2023-04-04T08:02:54.413Z,34.15
2023-04-04T08:05:21.634Z,37.88
2023-04-04T08:07:48.400Z,38.10
2023-04-04T08:10:17.385Z,38.55
2023-04-04T08:12:44.961Z,37.90
2023-04-04T08:15:11.959Z,38.15
2023-04-04T08:17:38.809Z,38.25
2023-04-04T08:20:07.663Z,40.38
2023-04-04T08:22:34.261Z,39.88
2023-04-04T08:25:01.017Z,38.28
2023-04-04T08:27:27.858Z,38.95
2023-04-04T08:29:54.514Z,37.40
2023-04-04T08:32:22.060Z,37.58
2023-04-04T08:34:49.623Z,37.08
2023-04-04T08:37:16.846Z,37.70
2023-04-04T08:39:43.952Z,37.70
2023-04-04T08:42:11.808Z,37.50
2023-04-04T08:44:41.724Z,37.67
2023-04-04T08:47:10.310Z,39.40
2023-04-04T08:49:43.950Z,36.85
2023-04-04T08:52:12.651Z,37.05
2023-04-04T08:54:41.145Z,36.80
2023-04-04T08:57:08.221Z,34.60
2023-04-04T08:59:35.255Z,34.78
2023-04-04T09:02:13.989Z,34.45
2023-04-04T09:04:44.572Z,34.92
2023-04-04T09:07:15.760Z,34.45
2023-04-04T09:09:46.075Z,34.22
2023-04-04T09:12:16.848Z,33.50
2023-04-04T09:14:46.117Z,33.90
2023-04-04T09:17:13.531Z,32.47
2023-04-04T09:19:40.134Z,33.75
2023-04-04T09:22:07.898Z,32.40
2023-04-04T09:24:42.534Z,34.55
2023-04-04T09:27:10.754Z,36.08
2023-04-04T09:29:41.834Z,34.72
2023-04-04T09:32:16.045Z,34.38
2023-04-04T09:34:46.109Z,36.97
2023-04-04T09:37:16.567Z,35.63
2023-04-04T09:39:43.990Z,34.97
2023-04-04T09:42:12.177Z,34.88
2023-04-04T09:44:39.406Z,35.42
2023-04-04T09:50:01.708Z,43.35
2023-04-04T09:52:32.961Z,41.42
2023-04-04T09:55:01.307Z,43.17
2023-04-04T09:57:32.706Z,41.58
2023-04-04T10:00:07.158Z,44.53
2023-04-04T10:02:38.779Z,44.35
2023-04-04T10:05:07.006Z,43.08
2023-04-04T10:07:34.555Z,41.60
2023-04-04T10:10:04.744Z,42.72
2023-04-04T10:12:31.629Z,42.67
2023-04-04T10:14:59.115Z,43.08
2023-04-04T10:17:31.956Z,45.13
2023-04-04T10:20:01.603Z,45.53
2023-04-04T10:22:28.713Z,43.88
2023-04-04T10:24:55.398Z,46.20
2023-04-04T10:27:22.128Z,44.90
2023-04-04T10:29:49.063Z,44.50
2023-04-04T10:32:23.439Z,46.03
2023-04-04T10:34:59.763Z,45.17
2023-04-04T10:37:28.153Z,45.30
2023-04-04T10:40:04.280Z,45.63
2023-04-04T10:42:38.601Z,44.05
2023-04-04T10:45:19.942Z,44.47
2023-04-04T10:47:48.652Z,45.83
2023-04-04T10:50:15.567Z,46.22
2023-04-04T10:52:44.340Z,47.47
2023-04-04T10:55:13.560Z,47.25
2023-04-04T10:57:45.662Z,46.22
2023-04-04T11:00:20.158Z,48.33
2023-04-04T11:02:53.018Z,46.83
2023-04-04T11:05:22.072Z,46.90
2023-04-04T11:10:31.969Z,45.50
2023-04-04T11:13:12.964Z,45.83
2023-04-04T11:16:01.753Z,46.30
2023-04-04T11:18:41.464Z,44.70
2023-04-04T11:21:10.351Z,46.60
2023-04-04T11:23:48.900Z,48.47
2023-04-04T11:26:19.835Z,46.25
2023-04-04T11:28:47.508Z,46.65
2023-04-04T11:31:17.572Z,47.60
2023-04-04T11:33:57.705Z,47.08
2023-04-04T11:36:39.670Z,46.47
2023-04-04T11:39:14.701Z,44.58
2023-04-04T11:42:08.168Z,46.55
2023-04-04T11:44:41.308Z,46.55
2023-04-04T11:47:09.155Z,46.60
2023-04-04T11:49:41.578Z,45.63
2023-04-04T11:52:13.948Z,46.80
2023-04-04T11:54:42.268Z,47.35
2023-04-04T11:57:12.304Z,47.05
2023-04-04T11:59:44.387Z,45.50
2023-04-04T12:02:12.160Z,46.33
2023-04-04T12:04:43.582Z,44.72
2023-04-04T12:07:10.950Z,44.85
2023-04-04T12:09:38.587Z,45.35
2023-04-04T12:12:07.400Z,41.60
2023-04-04T12:14:34.263Z,46.42
2023-04-04T12:17:02.692Z,44.95
2023-04-04T12:19:29.852Z,42.67
2023-04-04T12:21:57.982Z,46.47
2023-04-04T12:24:24.779Z,46.58
2023-04-04T12:26:52.696Z,44.42
2023-04-04T12:29:22.769Z,44.88
2023-04-04T12:31:50.553Z,45.10
2023-04-04T12:34:25.716Z,44.58
2023-04-04T12:36:52.866Z,44.50
2023-04-04T12:39:21.481Z,44.25
2023-04-04T12:42:09.004Z,44.85
2023-04-04T12:44:39.272Z,44.75
2023-04-04T12:47:10.520Z,45.33
2023-04-04T12:49:42.896Z,46.67
2023-04-04T12:52:21.724Z,47.17
2023-04-04T12:55:04.749Z,47.33
2023-04-04T12:57:34.322Z,49.30
2023-04-04T13:00:04.294Z,48.47
2023-04-04T13:02:31.097Z,45.38
2023-04-04T13:04:59.940Z,46.50
2023-04-04T13:07:28.650Z,44.92
2023-04-04T13:09:57.960Z,45.70
2023-04-04T13:12:24.978Z,47.65
2023-04-04T13:15:06.927Z,47.22
2023-04-04T13:17:45.327Z,48.25
2023-04-04T13:20:13.375Z,49.13
2023-04-04T13:22:41.380Z,50.13
2023-04-04T13:25:09.586Z,50.55
2023-04-04T13:27:37.135Z,51.13
2023-04-04T13:30:09.985Z,51.95
2023-04-04T13:32:37.748Z,48.08
2023-04-04T13:35:04.737Z,47.55
2023-04-04T13:37:31.379Z,49.00
2023-04-04T13:39:58.307Z,46.53
2023-04-04T13:42:29.932Z,47.25
2023-04-04T13:44:57.320Z,49.25
2023-04-04T13:47:27.192Z,49.58
2023-04-04T13:49:54.936Z,48.28
2023-04-04T13:52:22.094Z,46.95
2023-04-04T13:54:48.768Z,48.85
2023-04-04T13:57:15.554Z,50.00
2023-04-04T13:59:42.133Z,48.90
2023-04-04T14:02:09.656Z,50.88
2023-04-04T14:04:36.406Z,47.53
2023-04-04T14:07:03.096Z,47.58
2023-04-04T14:09:29.780Z,48.08
2023-04-04T14:11:56.421Z,48.15
2023-04-04T14:14:23.155Z,47.03
2023-04-04T14:16:49.952Z,47.47
2023-04-04T14:19:17.063Z,47.63
2023-04-04T14:21:43.679Z,46.40
2023-04-04T14:24:10.562Z,47.35
2023-04-04T14:26:37.585Z,48.60
2023-04-04T14:29:04.219Z,48.00
2023-04-04T14:31:33.317Z,47.25
2023-04-04T14:34:03.400Z,48.45
2023-04-04T14:36:30.351Z,46.35
2023-04-04T14:38:57.304Z,47.38
2023-04-04T14:41:24.023Z,46.78
2023-04-04T14:43:51.988Z,49.22
2023-04-04T14:46:19.543Z,47.40
2023-04-04T14:48:47.023Z,48.25
2023-04-04T14:51:14.060Z,48.13
2023-04-04T14:53:40.847Z,47.75
2023-04-04T14:56:08.310Z,50.03
2023-04-04T14:58:35.582Z,47.53
2023-04-04T15:01:03.527Z,50.40
2023-04-04T15:03:30.511Z,49.03
2023-04-04T15:05:57.607Z,51.13
2023-04-04T15:08:24.281Z,49.33
2023-04-04T15:10:51.132Z,49.45
2023-04-04T15:13:17.916Z,49.20
2023-04-04T15:15:45.032Z,50.30
2023-04-04T15:18:11.670Z,50.63
2023-04-04T15:20:41.479Z,52.90
2023-04-04T15:23:08.524Z,51.13
2023-04-04T15:25:36.508Z,49.95
2023-04-04T15:28:03.265Z,47.65
2023-04-04T15:30:30.831Z,46.13
2023-04-04T15:32:57.470Z,47.00
2023-04-04T15:35:24.278Z,46.47
2023-04-04T15:37:51.119Z,50.63
2023-04-04T15:40:18.984Z,46.90
2023-04-04T15:42:46.570Z,48.40
2023-04-04T15:45:14.554Z,44.53
2023-04-04T15:47:42.182Z,48.08
2023-04-04T15:50:09.370Z,51.78
2023-04-04T15:52:36.186Z,47.60
2023-04-04T15:55:04.081Z,50.67
2023-04-04T15:57:31.795Z,49.33
2023-04-04T15:59:58.733Z,47.28
2023-04-04T16:02:25.592Z,47.17
2023-04-04T16:04:52.219Z,46.88
2023-04-04T16:07:18.868Z,44.97
2023-04-04T16:09:45.934Z,40.83
2023-04-04T16:12:12.605Z,43.30
2023-04-04T16:14:39.220Z,43.97
2023-04-04T16:17:05.866Z,44.28
2023-04-04T16:19:32.493Z,42.15
2023-04-04T16:21:59.209Z,45.00
2023-04-04T16:24:26.172Z,47.33
2023-04-04T16:26:52.944Z,48.03
2023-04-04T16:29:21.181Z,55.35
2023-04-04T16:31:48.011Z,51.17
2023-04-04T16:34:14.731Z,55.25
2023-04-04T16:36:41.442Z,51.05
2023-04-04T16:39:08.179Z,49.85
2023-04-04T16:41:34.811Z,51.72
2023-04-04T16:44:01.701Z,50.70
2023-04-04T16:46:28.352Z,52.60
2023-04-04T16:48:55.245Z,52.70
2023-04-04T16:51:22.174Z,47.85
2023-04-04T16:53:48.749Z,47.47
2023-04-04T16:56:15.827Z,45.85
2023-04-04T16:58:44.994Z,44.90
2023-04-04T17:01:16.640Z,45.60
2023-04-04T17:03:43.321Z,46.17
2023-04-04T17:06:10.212Z,48.58
2023-04-04T17:08:36.936Z,60.97
2023-04-04T17:11:03.691Z,52.72
2023-04-04T17:13:30.416Z,44.30
2023-04-04T17:15:57.451Z,44.95
2023-04-04T17:18:24.079Z,43.83
2023-04-04T17:20:52.281Z,43.50
2023-04-04T17:23:18.891Z,42.63
2023-04-04T17:25:45.544Z,43.42
2023-04-04T17:28:12.176Z,43.53
2023-04-04T17:30:39.057Z,49.88
2023-04-04T17:33:05.973Z,46.47
2023-04-04T17:35:32.614Z,49.50
2023-04-04T17:37:59.194Z,40.08
2023-04-04T17:40:25.805Z,54.13
2023-04-04T17:42:52.453Z,40.05
2023-04-04T17:45:19.363Z,41.85
2023-04-04T17:47:46.195Z,41.38
2023-04-04T17:50:12.865Z,40.35
2023-04-04T17:52:39.544Z,40.45
2023-04-04T17:55:07.308Z,41.92
2023-04-04T17:57:34.068Z,40.22
2023-04-04T18:00:00.840Z,28.42
2023-04-04T18:02:27.586Z,27.50
2023-04-04T18:04:54.816Z,27.10
2023-04-04T18:07:21.769Z,27.65
2023-04-04T18:09:48.403Z,29.15
2023-04-04T18:12:15.831Z,28.45
2023-04-04T18:14:42.843Z,28.92
2023-04-04T18:17:10.641Z,28.55
2023-04-04T18:19:38.975Z,28.70
2023-04-04T18:22:06.406Z,27.88
2023-04-04T18:24:33.230Z,28.58
2023-04-04T18:27:00.353Z,29.13
2023-04-04T18:29:27.126Z,39.08
2023-04-04T18:31:54.060Z,28.02
2023-04-04T18:34:20.892Z,28.27
2023-04-04T18:36:49.351Z,27.25
2023-04-04T18:39:18.326Z,27.13
2023-04-04T18:41:46.214Z,28.50
2023-04-04T18:44:12.880Z,27.80
2023-04-04T18:46:39.570Z,28.45
2023-04-04T18:49:06.841Z,28.40
2023-04-04T18:51:33.524Z,27.63
2023-04-04T18:54:00.482Z,28.42
2023-04-04T18:56:27.320Z,27.98
2023-04-04T18:58:54.058Z,28.52
2023-04-04T19:01:20.824Z,28.17
2023-04-04T19:03:51.141Z,27.15
2023-04-04T19:06:17.851Z,27.63
2023-04-04T19:08:44.950Z,27.63
2023-04-04T19:11:12.055Z,27.85
2023-04-04T19:13:38.821Z,27.23
2023-04-04T19:16:05.515Z,27.15
2023-04-04T19:18:32.171Z,27.17
2023-04-04T19:20:58.820Z,27.42
2023-04-04T19:23:25.500Z,28.35
2023-04-04T19:25:52.227Z,29.17
2023-04-04T19:28:18.879Z,28.05
2023-04-04T19:30:47.637Z,28.33
2023-04-04T19:33:21.089Z,28.20
2023-04-04T19:36:16.046Z,28.77
2023-04-04T19:38:44.225Z,28.15
2023-04-04T19:41:22.897Z,28.65
2023-04-04T19:43:50.514Z,27.52
2023-04-04T19:46:31.494Z,28.70
2023-04-04T19:49:00.017Z,28.27
2023-04-04T19:51:27.705Z,28.30
2023-04-04T19:53:56.329Z,29.45
2023-04-04T19:56:24.829Z,29.80
2023-04-04T19:58:57.480Z,29.42
2023-04-04T20:01:29.042Z,30.15
2023-04-04T20:03:56.503Z,35.10
2023-04-04T20:06:31.444Z,34.67
2023-04-04T20:08:59.831Z,46.63
2023-04-04T20:11:32.873Z,53.83
2023-04-04T20:14:01.407Z,94.97
2023-04-04T20:16:29.799Z,75.75
2023-04-04T20:18:59.089Z,56.38
2023-04-04T20:21:28.302Z,51.75
2023-04-04T20:23:57.746Z,63.08
2023-04-04T20:26:54.262Z,60.80
2023-04-04T20:29:26.360Z,58.70
2023-04-04T20:32:01.474Z,62.75
2023-04-04T20:34:45.881Z,42.90
2023-04-04T20:37:21.768Z,34.30
2023-04-04T20:39:59.277Z,39.72
2023-04-04T20:42:25.972Z,35.70
2023-04-04T20:44:53.503Z,35.13
2023-04-04T20:47:42.620Z,51.85
2023-04-04T20:50:29.538Z,52.40
2023-04-04T20:53:01.431Z,35.53
2023-04-04T20:55:30.344Z,32.25
2023-04-04T20:58:09.608Z,31.92
2023-04-04T21:00:41.410Z,37.22
2023-04-04T21:03:26.440Z,42.08
2023-04-04T21:05:56.413Z,37.10
2023-04-04T21:08:23.986Z,34.95
2023-04-04T21:10:53.482Z,29.85
2023-04-04T21:13:27.796Z,29.45
2023-04-04T21:16:01.318Z,30.65
2023-04-04T21:18:31.152Z,29.00
2023-04-04T21:21:16.447Z,28.92
2023-04-04T21:23:48.634Z,28.75
2023-04-04T21:26:26.346Z,28.98
2023-04-04T21:28:53.584Z,29.27
2023-04-04T21:31:23.471Z,29.05
2023-04-04T21:33:55.440Z,28.73
2023-04-04T21:36:29.367Z,30.48
2023-04-04T21:39:06.457Z,30.03
2023-04-04T21:41:34.732Z,31.75
2023-04-04T21:44:04.437Z,31.05
2023-04-04T21:46:34.145Z,30.80
2023-04-04T21:49:01.403Z,31.27
2023-04-04T21:51:28.259Z,30.15
2023-04-04T21:53:55.456Z,28.80
2023-04-04T21:56:26.988Z,28.90
2023-04-04T21:58:55.406Z,27.88
2023-04-04T22:01:22.355Z,28.63
2023-04-04T22:03:48.968Z,28.90
2023-04-04T22:06:15.613Z,29.58
2023-04-04T22:08:42.634Z,28.23
2023-04-04T22:11:13.391Z,28.42
2023-04-04T22:13:46.750Z,29.02
2023-04-04T22:16:18.217Z,27.10
2023-04-04T22:18:51.768Z,27.65
2023-04-04T22:21:25.712Z,26.90
2023-04-04T22:23:53.808Z,26.67
2023-04-04T22:26:31.757Z,27.00
2023-04-04T22:29:03.380Z,26.88
2023-04-04T22:31:30.800Z,27.58
2023-04-04T22:33:57.679Z,28.27
2023-04-04T22:36:24.869Z,27.80
2023-04-04T22:38:56.663Z,27.52
2023-04-04T22:41:28.439Z,28.25
2023-04-04T22:43:56.942Z,28.55
2023-04-04T22:46:25.445Z,27.48
2023-04-04T22:49:04.191Z,28.65
2023-04-04T22:51:34.605Z,28.52
2023-04-04T22:54:02.287Z,27.90
2023-04-04T22:56:28.898Z,26.95
2023-04-04T22:58:55.846Z,26.63
2023-04-04T23:01:22.553Z,26.55
2023-04-04T23:03:49.245Z,27.10
2023-04-04T23:06:16.534Z,26.20
2023-04-04T23:08:46.881Z,26.52
2023-04-04T23:11:14.088Z,27.38
2023-04-04T23:13:43.058Z,26.98
2023-04-04T23:16:09.955Z,26.80
2023-04-04T23:18:36.581Z,27.42
2023-04-04T23:21:03.592Z,26.65
2023-04-04T23:23:30.396Z,27.52
2023-04-04T23:25:58.134Z,27.85
2023-04-04T23:28:24.772Z,27.58
2023-04-04T23:30:52.470Z,27.10
2023-04-04T23:33:19.060Z,27.40
2023-04-04T23:35:45.677Z,27.90
2023-04-04T23:38:13.392Z,27.38
2023-04-04T23:40:40.564Z,26.20
2023-04-04T23:43:07.365Z,25.73
2023-04-04T23:45:39.295Z,25.58
2023-04-04T23:48:06.200Z,24.95
2023-04-04T23:50:32.923Z,24.90
2023-04-04T23:52:59.540Z,25.60
2023-04-04T23:55:27.209Z,25.27
2023-04-04T23:57:56.050Z,25.75
